True Love — WDG3367 — position and weather

sailwx.info

Track history (hours):
 
Tides and Currents Weather Stations Pressure Air Temp Water Temp Dewpoint Dewpoint Depression Visibility Wind Speed Wind Dir Waves Ship Positions

True Love

More information available from US FCC via Universal Licensing System and Coast Guard Vessel Documentation Center.

Last reported at 2014-Jul-22 23:33 UTC. Time now 2014-Jul-23 16:01 UTC.
Position N 48°31' W 122°33'.

Length 16 m.

Type: Pleasure craft. MMSI: 367525310.

Date/timePositionNaut miles runAvg speedWind from/ knotsBaromVisibWave heightAir tempDewpointWater temp
2014-Jul-22 23:33N 48°31' W 122°33'9 8.7
2014-Jul-22 22:33N 48°38' W 122°40'20 7.9
2014-Jul-22 20:05N 48°48' W 123°06'0 0.0
2014-Jul-22 13:05N 48°48' W 123°06'0 0.0
2014-Jul-22 10:28N 48°48' W 123°06'0 0.0
2014-Jul-22 09:10N 48°48' W 123°06'0 0.0
2014-Jul-22 07:16N 48°48' W 123°06'35 1.0
2014-Jul-20 20:12N 49°08' W 123°49'5 5.6
2014-Jul-20 19:22N 49°10' W 123°56'0 0.0
2014-Jul-20 18:16N 49°10' W 123°56'0 0.0
2014-Jul-20 17:28N 49°10' W 123°56'0 0.0
2014-Jul-20 16:22N 49°10' W 123°56'0 0.0
2014-Jul-20 15:28N 49°10' W 123°56'0 0.0
2014-Jul-20 14:04N 49°10' W 123°56'0 0.0
2014-Jul-20 13:28N 49°10' W 123°56'0 0.0
2014-Jul-20 12:22N 49°10' W 123°56'0 0.0
2014-Jul-20 11:16N 49°10' W 123°56'0 0.0
2014-Jul-20 06:10N 49°10' W 123°56'0 0.0
2014-Jul-20 04:16N 49°10' W 123°56'0 0.0
2014-Jul-20 03:10N 49°10' W 123°56'0 0.0
2014-Jul-20 00:16N 49°10' W 123°56'0 0.0
2014-Jul-19 22:28N 49°10' W 123°56'0 0.0
2014-Jul-19 21:28N 49°10' W 123°56'0 0.0
2014-Jul-19 15:28N 49°10' W 123°56'0 0.0
2014-Jul-19 14:16N 49°10' W 123°56'0 0.0
2014-Jul-19 13:28N 49°10' W 123°56'0 0.0
2014-Jul-19 12:28N 49°10' W 123°56'0 0.0
2014-Jul-19 11:04N 49°10' W 123°56'0 0.0
2014-Jul-19 10:28N 49°10' W 123°56'0 0.0
2014-Jul-19 09:22N 49°10' W 123°56'0 0.0
2014-Jul-19 08:28N 49°10' W 123°56'0 0.0
2014-Jul-19 06:10N 49°10' W 123°56'0 0.0
2014-Jul-19 04:08N 49°10' W 123°56'4 6.2
2014-Jul-19 03:29N 49°14' W 123°57'1010.4
2014-Jul-19 02:33N 49°23' W 124°05'1211.8
2014-Jul-19 01:33N 49°32' W 124°15'9 9.1
2014-Jul-19 00:33N 49°37' W 124°27'  
Track history (hours):
 
Tides and Currents Weather Stations Pressure Air Temp Water Temp Dewpoint Dewpoint Depression Visibility Wind Speed Wind Dir Waves Ship Positions

True Love

More information available from US FCC via Universal Licensing System and Coast Guard Vessel Documentation Center.

Last reported at 2014-Jul-22 23:33 UTC. Time now 2014-Jul-23 16:01 UTC.
Position N 48°31' W 122°33'.

Length 16 m.

Type: Pleasure craft. MMSI: 367525310.

Date/timePositionNaut miles runAvg speedWind from/ knotsBaromVisibWave heightAir tempDewpointWater temp
2014-Jul-22 23:33N 48°31' W 122°33'9 8.7
2014-Jul-22 22:33N 48°38' W 122°40'20 7.9
2014-Jul-22 20:05N 48°48' W 123°06'0 0.0
2014-Jul-22 13:05N 48°48' W 123°06'0 0.0
2014-Jul-22 10:28N 48°48' W 123°06'0 0.0
2014-Jul-22 09:10N 48°48' W 123°06'0 0.0
2014-Jul-22 07:16N 48°48' W 123°06'35 1.0
2014-Jul-20 20:12N 49°08' W 123°49'5 5.6
2014-Jul-20 19:22N 49°10' W 123°56'0 0.0
2014-Jul-20 18:16N 49°10' W 123°56'0 0.0
2014-Jul-20 17:28N 49°10' W 123°56'0 0.0
2014-Jul-20 16:22N 49°10' W 123°56'0 0.0
2014-Jul-20 15:28N 49°10' W 123°56'0 0.0
2014-Jul-20 14:04N 49°10' W 123°56'0 0.0
2014-Jul-20 13:28N 49°10' W 123°56'0 0.0
2014-Jul-20 12:22N 49°10' W 123°56'0 0.0
2014-Jul-20 11:16N 49°10' W 123°56'0 0.0
2014-Jul-20 06:10N 49°10' W 123°56'0 0.0
2014-Jul-20 04:16N 49°10' W 123°56'0 0.0
2014-Jul-20 03:10N 49°10' W 123°56'0 0.0
2014-Jul-20 00:16N 49°10' W 123°56'0 0.0
2014-Jul-19 22:28N 49°10' W 123°56'0 0.0
2014-Jul-19 21:28N 49°10' W 123°56'0 0.0
2014-Jul-19 15:28N 49°10' W 123°56'0 0.0
2014-Jul-19 14:16N 49°10' W 123°56'0 0.0
2014-Jul-19 13:28N 49°10' W 123°56'0 0.0
2014-Jul-19 12:28N 49°10' W 123°56'0 0.0
2014-Jul-19 11:04N 49°10' W 123°56'0 0.0
2014-Jul-19 10:28N 49°10' W 123°56'0 0.0
2014-Jul-19 09:22N 49°10' W 123°56'0 0.0
2014-Jul-19 08:28N 49°10' W 123°56'0 0.0
2014-Jul-19 06:10N 49°10' W 123°56'0 0.0
2014-Jul-19 04:08N 49°10' W 123°56'4 6.2
2014-Jul-19 03:29N 49°14' W 123°57'1010.4
2014-Jul-19 02:33N 49°23' W 124°05'1211.8
2014-Jul-19 01:33N 49°32' W 124°15'9 9.1
2014-Jul-19 00:33N 49°37' W 124°27'  

Dump ship's entire track history